CST,Max TemperatureF,Mean TemperatureF,Min TemperatureF,Max Dew PointF,MeanDew PointF,Min DewpointF,Max Humidity, Mean Humidity, Min Humidity, Max Sea Level PressureIn, Mean Sea Level PressureIn, Min Sea Level PressureIn, Max VisibilityMiles, Mean VisibilityMiles, Min VisibilityMiles, Max Wind SpeedMPH, Mean Wind SpeedMPH, Max Gust SpeedMPH,PrecipitationIn, CloudCover, Events, WindDirDegrees
2012-11-1,48,40,32,36,27,21,75,59,37,30.05,29.98,29.93,10,10,7,18,6,22,0.00,3,,338
2012-11-2,41,32,24,28,25,19,81,68,57,30.16,30.11,30.05,10,10,10,12,5,,0.00,3,,47
2012-11-3,44,40,37,32,29,27,75,63,49,30.23,30.20,30.15,10,10,4,5,1,,0.04,8,Rain,349
2012-11-4,48,44,39,37,35,32,81,76,66,30.23,30.17,30.12,10,8,5,12,5,,0.03,8,Rain,99
2012-11-5,44,42,41,37,36,34,87,77,66,30.20,30.12,29.96,7,5,2,16,6,18,0.09,8,Rain,143
2012-11-6,44,42,39,37,35,34,81,77,66,29.98,29.88,29.80,10,7,2,23,16,31,0.12,8,Rain,278
2012-11-7,44,40,35,34,33,30,87,74,57,30.13,30.08,29.99,10,10,10,10,6,,0.00,6,,284
2012-11-8,59,47,35,37,34,30,87,68,45,30.08,29.98,29.93,10,10,10,23,10,28,0.00,0,,149
2012-11-9,53,44,35,41,36,32,87,72,58,30.01,29.95,29.87,10,7,4,23,10,29,0.00,2,,71
2012-11-10,77,62,46,54,48,37,82,64,34,29.86,29.63,29.51,10,8,3,28,20,34,0.11,5,Rain-Thunderstorm,149
2012-11-11,59,41,23,52,28,14,93,77,59,29.99,29.81,29.57,10,8,1,23,15,33,0.05,8,Rain-Snow,275
2012-11-12,28,24,19,19,16,12,80,70,59,30.32,30.12,29.99,10,9,1,22,14,28,0.00,5,Snow,252
2012-11-13,44,30,17,30,22,12,80,66,43,30.37,30.32,30.27,10,10,10,14,6,21,0.00,2,,164
2012-11-14,53,44,35,32,31,28,87,64,38,30.28,30.24,30.18,10,10,10,12,7,,0.00,4,,182
2012-11-15,53,40,26,36,30,19,81,65,47,30.45,30.27,30.14,10,10,10,15,9,18,0.00,2,,269
2012-11-16,46,34,21,32,21,10,81,61,34,30.48,30.42,30.33,10,10,10,12,5,,0.00,0,,115
2012-11-17,59,47,35,37,33,30,81,56,36,30.34,30.27,30.21,10,10,7,22,14,31,0.00,1,,160
2012-11-18,60,50,41,32,31,28,61,45,29,30.23,30.14,30.08,10,10,10,23,16,28,0.00,2,,159
2012-11-19,62,48,33,37,34,30,87,53,36,30.11,30.06,30.01,10,10,7,18,12,25,0.00,2,,166
2012-11-20,53,40,26,41,31,23,93,74,41,30.19,30.13,30.08,10,6,0,13,3,,0.00,1,Fog,226
2012-11-21,71,58,44,41,35,30,62,47,25,30.08,29.92,29.75,10,10,10,23,14,29,0.00,0,,187
2012-11-22,59,46,30,41,34,18,75,61,39,30.06,29.80,29.67,10,10,10,34,20,45,0.00,3,Rain,251
2012-11-23,30,24,17,18,13,10,74,63,51,30.38,30.27,30.06,10,9,2,36,25,47,0.00,7,Snow,306
2012-11-24,32,20,8,19,13,3,86,66,48,30.35,30.09,29.80,10,10,7,15,6,21,0.00,4,,169
2012-11-25,33,30,26,25,20,10,75,65,47,30.17,29.98,29.82,10,10,7,20,8,24,0.00,5,,297
2012-11-26,26,19,12,12,6,3,73,56,40,30.42,30.35,30.17,10,10,5,16,10,18,0.00,2,,306
2012-11-27,39,26,12,23,15,3,80,64,49,30.37,30.23,30.11,10,10,10,20,10,25,0.00,1,,212
2012-11-28,39,29,19,25,21,14,86,69,52,30.36,30.25,30.09,10,10,7,12,6,,0.00,2,,212
2012-11-29,46,35,24,28,25,19,80,65,49,30.09,30.05,30.00,10,10,7,15,6,17,0.00,0,,84
2012-11-30,39,36,32,34,30,25,87,80,70,30.14,30.09,30.03,10,5,2,18,11,23,0.00,6,,87